sensor_id;sensor_type;location;lat;lon;timestamp;temperature;humidity
11112;DHT22;5609;49.466;8.468;2022-09-01T00:02:08;19.10;1.00
11112;DHT22;5609;49.466;8.468;2022-09-01T00:04:37;19.10;1.00
11112;DHT22;5609;49.466;8.468;2022-09-01T00:07:05;19.10;1.00
11112;DHT22;5609;49.466;8.468;2022-09-01T00:09:33;19.20;1.00
11112;DHT22;5609;49.466;8.468;2022-09-01T00:12:02;19.20;1.00
11112;DHT22;5609;49.466;8.468;2022-09-01T00:14:33;19.20;1.00
11112;DHT22;5609;49.466;8.468;2022-09-01T00:17:03;19.20;1.00
11112;DHT22;5609;49.466;8.468;2022-09-01T00:19:30;19.20;1.00
11112;DHT22;5609;49.466;8.468;2022-09-01T00:21:58;19.20;1.00
11112;DHT22;5609;49.466;8.468;2022-09-01T00:24:27;19.10;1.00
11112;DHT22;5609;49.466;8.468;2022-09-01T00:26:55;19.20;1.00
11112;DHT22;5609;49.466;8.468;2022-09-01T00:29:22;19.20;1.00
11112;DHT22;5609;49.466;8.468;2022-09-01T00:31:50;19.10;1.00
11112;DHT22;5609;49.466;8.468;2022-09-01T00:34:19;19.00;1.00
11112;DHT22;5609;49.466;8.468;2022-09-01T00:36:46;19.00;1.00
11112;DHT22;5609;49.466;8.468;2022-09-01T00:39:14;19.00;1.00
11112;DHT22;5609;49.466;8.468;2022-09-01T00:41:42;19.00;1.00
11112;DHT22;5609;49.466;8.468;2022-09-01T00:44:12;19.00;1.00
11112;DHT22;5609;49.466;8.468;2022-09-01T00:46:42;19.00;1.00
11112;DHT22;5609;49.466;8.468;2022-09-01T00:49:14;19.00;1.00
11112;DHT22;5609;49.466;8.468;2022-09-01T00:51:44;19.00;1.00
11112;DHT22;5609;49.466;8.468;2022-09-01T00:54:16;19.00;1.00
11112;DHT22;5609;49.466;8.468;2022-09-01T00:56:46;18.90;1.00
11112;DHT22;5609;49.466;8.468;2022-09-01T00:59:16;18.90;1.00
11112;DHT22;5609;49.466;8.468;2022-09-01T01:01:44;18.90;1.00
11112;DHT22;5609;49.466;8.468;2022-09-01T01:04:11;18.80;1.00
11112;DHT22;5609;49.466;8.468;2022-09-01T01:06:40;18.80;1.00
11112;DHT22;5609;49.466;8.468;2022-09-01T01:09:08;18.80;1.00
11112;DHT22;5609;49.466;8.468;2022-09-01T01:11:35;18.70;1.00
11112;DHT22;5609;49.466;8.468;2022-09-01T01:14:06;18.70;1.00
11112;DHT22;5609;49.466;8.468;2022-09-01T01:16:38;18.70;1.00
11112;DHT22;5609;49.466;8.468;2022-09-01T01:19:11;18.70;1.00
11112;DHT22;5609;49.466;8.468;2022-09-01T01:22:05;18.60;1.00
11112;DHT22;5609;49.466;8.468;2022-09-01T01:24:53;18.50;1.00
11112;DHT22;5609;49.466;8.468;2022-09-01T01:27:21;18.50;1.00
11112;DHT22;5609;49.466;8.468;2022-09-01T01:29:48;18.50;1.00
11112;DHT22;5609;49.466;8.468;2022-09-01T01:32:17;18.50;1.00
11112;DHT22;5609;49.466;8.468;2022-09-01T01:34:45;18.40;1.00
11112;DHT22;5609;49.466;8.468;2022-09-01T01:37:12;18.40;1.00
11112;DHT22;5609;49.466;8.468;2022-09-01T01:39:40;18.40;1.00
11112;DHT22;5609;49.466;8.468;2022-09-01T01:42:10;18.30;1.00
11112;DHT22;5609;49.466;8.468;2022-09-01T01:44:37;18.40;1.00
11112;DHT22;5609;49.466;8.468;2022-09-01T01:47:08;18.30;1.00
11112;DHT22;5609;49.466;8.468;2022-09-01T01:49:38;18.30;1.00
11112;DHT22;5609;49.466;8.468;2022-09-01T01:52:08;18.30;1.00
11112;DHT22;5609;49.466;8.468;2022-09-01T01:54:36;18.30;1.00
11112;DHT22;5609;49.466;8.468;2022-09-01T01:57:03;18.30;1.00
11112;DHT22;5609;49.466;8.468;2022-09-01T01:59:32;18.20;1.00
11112;DHT22;5609;49.466;8.468;2022-09-01T02:01:59;18.20;1.00
11112;DHT22;5609;49.466;8.468;2022-09-01T02:04:28;18.20;1.00
11112;DHT22;5609;49.466;8.468;2022-09-01T02:06:59;18.10;1.00
11112;DHT22;5609;49.466;8.468;2022-09-01T02:09:26;18.10;1.00
11112;DHT22;5609;49.466;8.468;2022-09-01T02:11:52;18.10;1.00
11112;DHT22;5609;49.466;8.468;2022-09-01T02:14:22;18.10;1.00
11112;DHT22;5609;49.466;8.468;2022-09-01T02:16:50;18.00;1.20
11112;DHT22;5609;49.466;8.468;2022-09-01T02:19:20;18.00;1.00
11112;DHT22;5609;49.466;8.468;2022-09-01T02:21:47;18.00;1.00
11112;DHT22;5609;49.466;8.468;2022-09-01T02:24:19;17.90;8.30
11112;DHT22;5609;49.466;8.468;2022-09-01T02:26:46;18.00;1.00
11112;DHT22;5609;49.466;8.468;2022-09-01T02:29:15;17.90;1.00
11112;DHT22;5609;49.466;8.468;2022-09-01T02:31:45;17.90;3.10
11112;DHT22;5609;49.466;8.468;2022-09-01T02:34:14;17.90;6.10
11112;DHT22;5609;49.466;8.468;2022-09-01T02:36:42;17.90;12.60
11112;DHT22;5609;49.466;8.468;2022-09-01T02:39:12;17.90;15.60
11112;DHT22;5609;49.466;8.468;2022-09-01T02:41:39;18.00;1.00
11112;DHT22;5609;49.466;8.468;2022-09-01T02:44:06;18.00;1.00
11112;DHT22;5609;49.466;8.468;2022-09-01T02:46:36;18.00;1.00
11112;DHT22;5609;49.466;8.468;2022-09-01T02:49:07;18.10;4.00
11112;DHT22;5609;49.466;8.468;2022-09-01T02:51:41;18.00;13.50
11112;DHT22;5609;49.466;8.468;2022-09-01T02:54:09;18.00;1.00
11112;DHT22;5609;49.466;8.468;2022-09-01T02:56:40;17.90;1.00
11112;DHT22;5609;49.466;8.468;2022-09-01T02:59:06;18.00;8.60
11112;DHT22;5609;49.466;8.468;2022-09-01T03:01:38;18.10;14.70
11112;DHT22;5609;49.466;8.468;2022-09-01T03:04:07;18.10;4.60
11112;DHT22;5609;49.466;8.468;2022-09-01T03:06:35;18.10;8.70
11112;DHT22;5609;49.466;8.468;2022-09-01T03:09:06;18.10;7.00
11112;DHT22;5609;49.466;8.468;2022-09-01T03:11:36;18.10;3.30
11112;DHT22;5609;49.466;8.468;2022-09-01T03:14:03;18.10;2.60
11112;DHT22;5609;49.466;8.468;2022-09-01T03:16:31;18.10;4.90
11112;DHT22;5609;49.466;8.468;2022-09-01T03:18:57;18.10;1.00
11112;DHT22;5609;49.466;8.468;2022-09-01T03:21:25;18.20;5.90
11112;DHT22;5609;49.466;8.468;2022-09-01T03:23:52;18.20;2.30
11112;DHT22;5609;49.466;8.468;2022-09-01T03:26:21;18.20;2.50
11112;DHT22;5609;49.466;8.468;2022-09-01T03:28:49;18.30;5.50
11112;DHT22;5609;49.466;8.468;2022-09-01T03:31:17;18.40;1.00
11112;DHT22;5609;49.466;8.468;2022-09-01T03:33:44;18.30;1.00
11112;DHT22;5609;49.466;8.468;2022-09-01T03:36:12;18.30;5.80
11112;DHT22;5609;49.466;8.468;2022-09-01T03:38:44;18.30;1.00
11112;DHT22;5609;49.466;8.468;2022-09-01T03:41:15;18.20;1.00
11112;DHT22;5609;49.466;8.468;2022-09-01T03:43:45;18.20;1.00
11112;DHT22;5609;49.466;8.468;2022-09-01T03:46:12;18.20;1.00
11112;DHT22;5609;49.466;8.468;2022-09-01T03:48:44;18.20;1.00
11112;DHT22;5609;49.466;8.468;2022-09-01T03:51:13;18.30;5.60
11112;DHT22;5609;49.466;8.468;2022-09-01T03:53:40;18.30;1.00
11112;DHT22;5609;49.466;8.468;2022-09-01T03:56:08;18.40;1.00
11112;DHT22;5609;49.466;8.468;2022-09-01T03:58:36;18.40;1.00
11112;DHT22;5609;49.466;8.468;2022-09-01T04:01:04;18.40;1.00
11112;DHT22;5609;49.466;8.468;2022-09-01T04:03:32;18.40;1.00
11112;DHT22;5609;49.466;8.468;2022-09-01T04:06:01;18.20;1.00
11112;DHT22;5609;49.466;8.468;2022-09-01T04:08:28;18.30;1.00
11112;DHT22;5609;49.466;8.468;2022-09-01T04:10:58;18.10;1.00
11112;DHT22;5609;49.466;8.468;2022-09-01T04:13:28;18.00;4.10
11112;DHT22;5609;49.466;8.468;2022-09-01T04:15:57;17.90;11.60
11112;DHT22;5609;49.466;8.468;2022-09-01T04:18:25;17.70;18.70
11112;DHT22;5609;49.466;8.468;2022-09-01T04:20:53;17.60;18.10
11112;DHT22;5609;49.466;8.468;2022-09-01T04:23:23;17.60;18.00
11112;DHT22;5609;49.466;8.468;2022-09-01T04:25:53;17.50;24.70
11112;DHT22;5609;49.466;8.468;2022-09-01T04:28:22;17.40;12.30
11112;DHT22;5609;49.466;8.468;2022-09-01T04:30:54;17.40;24.80
11112;DHT22;5609;49.466;8.468;2022-09-01T04:33:22;17.20;21.60
11112;DHT22;5609;49.466;8.468;2022-09-01T04:35:51;17.20;21.00
11112;DHT22;5609;49.466;8.468;2022-09-01T04:38:20;17.30;22.80
11112;DHT22;5609;49.466;8.468;2022-09-01T04:40:47;17.20;16.60
11112;DHT22;5609;49.466;8.468;2022-09-01T04:43:15;17.30;20.30
11112;DHT22;5609;49.466;8.468;2022-09-01T04:45:45;17.30;18.80
11112;DHT22;5609;49.466;8.468;2022-09-01T04:48:13;17.30;16.50
11112;DHT22;5609;49.466;8.468;2022-09-01T04:50:40;17.30;18.90
11112;DHT22;5609;49.466;8.468;2022-09-01T04:53:08;17.30;24.30
11112;DHT22;5609;49.466;8.468;2022-09-01T04:55:38;17.30;25.10
11112;DHT22;5609;49.466;8.468;2022-09-01T04:58:09;17.40;22.50
11112;DHT22;5609;49.466;8.468;2022-09-01T05:00:39;17.50;16.80
11112;DHT22;5609;49.466;8.468;2022-09-01T05:03:06;17.50;17.80
11112;DHT22;5609;49.466;8.468;2022-09-01T05:05:39;17.60;12.40
11112;DHT22;5609;49.466;8.468;2022-09-01T05:08:09;17.60;10.20
11112;DHT22;5609;49.466;8.468;2022-09-01T05:10:40;17.70;3.70
11112;DHT22;5609;49.466;8.468;2022-09-01T05:13:08;17.70;3.20
11112;DHT22;5609;49.466;8.468;2022-09-01T05:15:38;17.70;6.50
11112;DHT22;5609;49.466;8.468;2022-09-01T05:18:11;17.60;3.10
11112;DHT22;5609;49.466;8.468;2022-09-01T05:20:39;17.70;12.80
11112;DHT22;5609;49.466;8.468;2022-09-01T05:23:09;17.70;9.50
11112;DHT22;5609;49.466;8.468;2022-09-01T05:25:41;17.90;1.00
11112;DHT22;5609;49.466;8.468;2022-09-01T05:28:09;18.00;1.00
11112;DHT22;5609;49.466;8.468;2022-09-01T05:30:38;18.10;1.00
11112;DHT22;5609;49.466;8.468;2022-09-01T05:33:06;18.30;1.00
11112;DHT22;5609;49.466;8.468;2022-09-01T05:35:38;18.50;1.00
11112;DHT22;5609;49.466;8.468;2022-09-01T05:38:10;18.60;1.00
11112;DHT22;5609;49.466;8.468;2022-09-01T05:40:38;18.60;1.00
11112;DHT22;5609;49.466;8.468;2022-09-01T05:43:07;18.60;1.00
11112;DHT22;5609;49.466;8.468;2022-09-01T05:45:38;18.50;1.00
11112;DHT22;5609;49.466;8.468;2022-09-01T05:48:09;18.50;1.00
11112;DHT22;5609;49.466;8.468;2022-09-01T05:50:38;18.30;1.00
11112;DHT22;5609;49.466;8.468;2022-09-01T05:53:07;18.30;1.00
11112;DHT22;5609;49.466;8.468;2022-09-01T05:55:37;18.50;1.00
11112;DHT22;5609;49.466;8.468;2022-09-01T05:58:04;18.60;1.00
11112;DHT22;5609;49.466;8.468;2022-09-01T06:00:31;18.60;1.00
11112;DHT22;5609;49.466;8.468;2022-09-01T06:03:01;18.60;1.00
11112;DHT22;5609;49.466;8.468;2022-09-01T06:05:32;18.60;1.00
11112;DHT22;5609;49.466;8.468;2022-09-01T06:08:00;18.80;1.00
11112;DHT22;5609;49.466;8.468;2022-09-01T06:10:27;18.80;1.00
11112;DHT22;5609;49.466;8.468;2022-09-01T06:12:56;18.90;1.00
11112;DHT22;5609;49.466;8.468;2022-09-01T06:15:27;19.00;1.00
11112;DHT22;5609;49.466;8.468;2022-09-01T06:17:55;19.00;1.00
11112;DHT22;5609;49.466;8.468;2022-09-01T06:20:22;18.90;1.00
11112;DHT22;5609;49.466;8.468;2022-09-01T06:22:49;18.80;1.00
11112;DHT22;5609;49.466;8.468;2022-09-01T06:25:17;18.70;1.00
11112;DHT22;5609;49.466;8.468;2022-09-01T06:27:45;18.80;1.00
11112;DHT22;5609;49.466;8.468;2022-09-01T06:30:15;18.80;1.00
11112;DHT22;5609;49.466;8.468;2022-09-01T06:32:45;18.70;1.00
11112;DHT22;5609;49.466;8.468;2022-09-01T06:35:14;18.60;1.00
11112;DHT22;5609;49.466;8.468;2022-09-01T06:37:43;18.60;1.00
11112;DHT22;5609;49.466;8.468;2022-09-01T06:40:12;18.60;1.00
11112;DHT22;5609;49.466;8.468;2022-09-01T06:42:43;18.80;1.00
11112;DHT22;5609;49.466;8.468;2022-09-01T06:45:12;18.80;1.00
11112;DHT22;5609;49.466;8.468;2022-09-01T06:47:41;19.00;1.00
11112;DHT22;5609;49.466;8.468;2022-09-01T06:50:09;19.20;1.00
11112;DHT22;5609;49.466;8.468;2022-09-01T06:52:39;19.20;1.00
11112;DHT22;5609;49.466;8.468;2022-09-01T06:55:08;19.20;1.00
11112;DHT22;5609;49.466;8.468;2022-09-01T06:57:35;19.20;1.00
11112;DHT22;5609;49.466;8.468;2022-09-01T07:00:04;19.20;1.00
11112;DHT22;5609;49.466;8.468;2022-09-01T07:02:43;19.20;1.00
11112;DHT22;5609;49.466;8.468;2022-09-01T07:05:11;19.30;1.00
11112;DHT22;5609;49.466;8.468;2022-09-01T07:07:46;19.30;1.00
11112;DHT22;5609;49.466;8.468;2022-09-01T07:10:16;19.30;1.00
11112;DHT22;5609;49.466;8.468;2022-09-01T07:12:47;19.30;1.00
11112;DHT22;5609;49.466;8.468;2022-09-01T07:15:17;19.30;1.00
11112;DHT22;5609;49.466;8.468;2022-09-01T07:17:47;19.30;1.00
11112;DHT22;5609;49.466;8.468;2022-09-01T07:20:16;19.50;1.00
11112;DHT22;5609;49.466;8.468;2022-09-01T07:22:43;19.50;1.00
11112;DHT22;5609;49.466;8.468;2022-09-01T07:25:10;19.60;1.00
11112;DHT22;5609;49.466;8.468;2022-09-01T07:27:37;19.60;1.00
11112;DHT22;5609;49.466;8.468;2022-09-01T07:30:05;19.60;1.00
11112;DHT22;5609;49.466;8.468;2022-09-01T07:32:35;19.80;1.00
11112;DHT22;5609;49.466;8.468;2022-09-01T07:35:05;20.10;1.00
11112;DHT22;5609;49.466;8.468;2022-09-01T07:37:34;20.40;1.00
11112;DHT22;5609;49.466;8.468;2022-09-01T07:40:04;20.70;1.00
11112;DHT22;5609;49.466;8.468;2022-09-01T07:42:32;20.90;1.00
11112;DHT22;5609;49.466;8.468;2022-09-01T07:44:59;21.00;1.00
11112;DHT22;5609;49.466;8.468;2022-09-01T07:47:26;21.30;1.00
11112;DHT22;5609;49.466;8.468;2022-09-01T07:49:54;21.50;1.00
11112;DHT22;5609;49.466;8.468;2022-09-01T07:52:22;21.40;1.00
11112;DHT22;5609;49.466;8.468;2022-09-01T07:54:50;21.30;1.00
11112;DHT22;5609;49.466;8.468;2022-09-01T07:57:17;21.40;1.00
11112;DHT22;5609;49.466;8.468;2022-09-01T07:59:44;21.50;1.00
11112;DHT22;5609;49.466;8.468;2022-09-01T08:02:11;21.70;1.00
11112;DHT22;5609;49.466;8.468;2022-09-01T08:04:37;21.80;1.00
11112;DHT22;5609;49.466;8.468;2022-09-01T08:07:04;21.80;1.00
11112;DHT22;5609;49.466;8.468;2022-09-01T08:09:35;21.80;1.00
11112;DHT22;5609;49.466;8.468;2022-09-01T08:12:03;21.90;1.00
11112;DHT22;5609;49.466;8.468;2022-09-01T08:14:30;21.80;1.00
11112;DHT22;5609;49.466;8.468;2022-09-01T08:16:57;21.80;1.00
11112;DHT22;5609;49.466;8.468;2022-09-01T08:19:24;21.70;1.00
11112;DHT22;5609;49.466;8.468;2022-09-01T08:21:51;21.70;1.00
11112;DHT22;5609;49.466;8.468;2022-09-01T08:24:18;21.70;1.00
11112;DHT22;5609;49.466;8.468;2022-09-01T08:26:46;21.70;1.00
11112;DHT22;5609;49.466;8.468;2022-09-01T08:29:13;21.80;1.00
11112;DHT22;5609;49.466;8.468;2022-09-01T08:31:40;22.10;1.00
11112;DHT22;5609;49.466;8.468;2022-09-01T08:34:07;22.30;1.00
11112;DHT22;5609;49.466;8.468;2022-09-01T08:36:37;22.40;1.00
11112;DHT22;5609;49.466;8.468;2022-09-01T08:39:03;22.80;1.00
11112;DHT22;5609;49.466;8.468;2022-09-01T08:41:40;23.10;99.90
11112;DHT22;5609;49.466;8.468;2022-09-01T08:44:15;23.30;99.90
11112;DHT22;5609;49.466;8.468;2022-09-01T08:46:44;23.30;66.50
11112;DHT22;5609;49.466;8.468;2022-09-01T08:49:14;23.00;99.90
11112;DHT22;5609;49.466;8.468;2022-09-01T08:51:47;23.10;99.90
11112;DHT22;5609;49.466;8.468;2022-09-01T08:54:22;23.30;99.90
11112;DHT22;5609;49.466;8.468;2022-09-01T08:56:51;23.40;1.00
11112;DHT22;5609;49.466;8.468;2022-09-01T08:59:21;23.60;1.00
11112;DHT22;5609;49.466;8.468;2022-09-01T09:01:54;23.50;1.00
11112;DHT22;5609;49.466;8.468;2022-09-01T09:04:33;23.60;1.00
11112;DHT22;5609;49.466;8.468;2022-09-01T09:07:11;23.60;1.00
11112;DHT22;5609;49.466;8.468;2022-09-01T09:09:43;23.80;1.00
11112;DHT22;5609;49.466;8.468;2022-09-01T09:12:30;23.30;1.00
11112;DHT22;5609;49.466;8.468;2022-09-01T09:15:09;23.20;1.00
11112;DHT22;5609;49.466;8.468;2022-09-01T09:17:39;23.10;95.10
11112;DHT22;5609;49.466;8.468;2022-09-01T09:20:08;23.20;99.90
11112;DHT22;5609;49.466;8.468;2022-09-01T09:22:35;23.10;99.90
11112;DHT22;5609;49.466;8.468;2022-09-01T09:25:06;23.00;99.90
11112;DHT22;5609;49.466;8.468;2022-09-01T09:27:36;23.10;99.90
11112;DHT22;5609;49.466;8.468;2022-09-01T09:30:07;23.30;13.80
11112;DHT22;5609;49.466;8.468;2022-09-01T09:32:49;23.60;1.00
11112;DHT22;5609;49.466;8.468;2022-09-01T09:35:22;24.00;98.80
11112;DHT22;5609;49.466;8.468;2022-09-01T09:37:49;24.40;1.00
11112;DHT22;5609;49.466;8.468;2022-09-01T09:40:18;24.60;1.00
11112;DHT22;5609;49.466;8.468;2022-09-01T09:43:06;24.90;99.90
11112;DHT22;5609;49.466;8.468;2022-09-01T09:45:37;24.70;37.30
11112;DHT22;5609;49.466;8.468;2022-09-01T09:48:08;24.50;1.00
11112;DHT22;5609;49.466;8.468;2022-09-01T09:50:37;24.30;1.00
11112;DHT22;5609;49.466;8.468;2022-09-01T09:53:14;24.30;99.90
11112;DHT22;5609;49.466;8.468;2022-09-01T09:55:59;24.60;99.90
11112;DHT22;5609;49.466;8.468;2022-09-01T09:58:33;24.80;1.00
11112;DHT22;5609;49.466;8.468;2022-09-01T10:01:05;24.80;1.00
11112;DHT22;5609;49.466;8.468;2022-09-01T10:03:37;25.10;99.90
11112;DHT22;5609;49.466;8.468;2022-09-01T10:06:10;25.10;99.90
11112;DHT22;5609;49.466;8.468;2022-09-01T10:08:41;25.10;99.90
11112;DHT22;5609;49.466;8.468;2022-09-01T10:11:11;25.10;99.90
11112;DHT22;5609;49.466;8.468;2022-09-01T10:13:51;25.10;1.00
11112;DHT22;5609;49.466;8.468;2022-09-01T10:16:24;25.50;1.00
11112;DHT22;5609;49.466;8.468;2022-09-01T10:18:52;26.10;99.90
11112;DHT22;5609;49.466;8.468;2022-09-01T10:21:30;26.50;1.00
11112;DHT22;5609;49.466;8.468;2022-09-01T10:23:58;26.90;99.90
11112;DHT22;5609;49.466;8.468;2022-09-01T10:26:29;26.90;1.00
11112;DHT22;5609;49.466;8.468;2022-09-01T10:29:00;27.40;1.00
11112;DHT22;5609;49.466;8.468;2022-09-01T10:31:29;27.40;1.00
11112;DHT22;5609;49.466;8.468;2022-09-01T10:33:57;27.50;1.00
11112;DHT22;5609;49.466;8.468;2022-09-01T10:36:25;27.50;1.00
11112;DHT22;5609;49.466;8.468;2022-09-01T10:38:51;27.60;1.00
11112;DHT22;5609;49.466;8.468;2022-09-01T10:41:44;27.40;1.00
11112;DHT22;5609;49.466;8.468;2022-09-01T10:44:17;27.10;1.00
11112;DHT22;5609;49.466;8.468;2022-09-01T10:46:47;27.00;1.00
11112;DHT22;5609;49.466;8.468;2022-09-01T10:52:52;26.60;1.00
11112;DHT22;5609;49.466;8.468;2022-09-01T10:55:21;26.30;1.00
11112;DHT22;5609;49.466;8.468;2022-09-01T10:57:55;26.30;1.00
11112;DHT22;5609;49.466;8.468;2022-09-01T11:00:47;26.50;1.00
11112;DHT22;5609;49.466;8.468;2022-09-01T11:03:52;26.80;1.00
11112;DHT22;5609;49.466;8.468;2022-09-01T11:09:30;28.00;1.00
11112;DHT22;5609;49.466;8.468;2022-09-01T11:12:14;28.10;1.00
11112;DHT22;5609;49.466;8.468;2022-09-01T11:14:48;28.30;1.00
11112;DHT22;5609;49.466;8.468;2022-09-01T11:17:19;28.40;1.00
11112;DHT22;5609;49.466;8.468;2022-09-01T11:19:54;28.30;1.00
11112;DHT22;5609;49.466;8.468;2022-09-01T11:22:29;28.20;99.90
11112;DHT22;5609;49.466;8.468;2022-09-01T11:28:07;28.50;99.90
11112;DHT22;5609;49.466;8.468;2022-09-01T11:30:42;28.60;99.90
11112;DHT22;5609;49.466;8.468;2022-09-01T11:36:19;28.40;99.90
11112;DHT22;5609;49.466;8.468;2022-09-01T11:38:51;28.60;99.90
11112;DHT22;5609;49.466;8.468;2022-09-01T11:41:24;28.70;99.90
11112;DHT22;5609;49.466;8.468;2022-09-01T11:43:55;29.10;99.90
11112;DHT22;5609;49.466;8.468;2022-09-01T11:46:27;29.00;99.90
11112;DHT22;5609;49.466;8.468;2022-09-01T11:48:56;29.10;99.90
11112;DHT22;5609;49.466;8.468;2022-09-01T11:51:24;28.90;99.90
11112;DHT22;5609;49.466;8.468;2022-09-01T11:53:57;29.10;99.90
11112;DHT22;5609;49.466;8.468;2022-09-01T11:56:26;29.10;99.90
11112;DHT22;5609;49.466;8.468;2022-09-01T11:58:54;29.10;99.90
11112;DHT22;5609;49.466;8.468;2022-09-01T12:01:23;29.30;99.90
11112;DHT22;5609;49.466;8.468;2022-09-01T12:03:57;29.50;99.90
11112;DHT22;5609;49.466;8.468;2022-09-01T12:06:27;30.10;99.90
11112;DHT22;5609;49.466;8.468;2022-09-01T12:08:57;29.90;99.90
11112;DHT22;5609;49.466;8.468;2022-09-01T12:11:27;29.90;99.90
11112;DHT22;5609;49.466;8.468;2022-09-01T12:13:59;29.60;99.90
11112;DHT22;5609;49.466;8.468;2022-09-01T12:16:27;29.70;99.90
11112;DHT22;5609;49.466;8.468;2022-09-01T12:18:56;30.20;99.90
11112;DHT22;5609;49.466;8.468;2022-09-01T12:21:27;30.10;99.90
11112;DHT22;5609;49.466;8.468;2022-09-01T12:24:13;30.00;99.90
11112;DHT22;5609;49.466;8.468;2022-09-01T12:26:42;30.00;99.90
11112;DHT22;5609;49.466;8.468;2022-09-01T12:29:10;30.30;99.90
11112;DHT22;5609;49.466;8.468;2022-09-01T12:31:40;30.10;99.90
11112;DHT22;5609;49.466;8.468;2022-09-01T12:34:23;30.10;99.90
11112;DHT22;5609;49.466;8.468;2022-09-01T12:37:04;29.90;99.90
11112;DHT22;5609;49.466;8.468;2022-09-01T12:39:33;30.50;99.90
11112;DHT22;5609;49.466;8.468;2022-09-01T12:42:06;30.30;99.90
11112;DHT22;5609;49.466;8.468;2022-09-01T12:44:43;29.80;99.90
11112;DHT22;5609;49.466;8.468;2022-09-01T12:47:17;29.30;99.90
11112;DHT22;5609;49.466;8.468;2022-09-01T12:50:01;28.70;99.90
11112;DHT22;5609;49.466;8.468;2022-09-01T12:52:30;28.40;99.90
11112;DHT22;5609;49.466;8.468;2022-09-01T12:55:11;28.50;99.90
11112;DHT22;5609;49.466;8.468;2022-09-01T12:57:45;29.20;99.90
11112;DHT22;5609;49.466;8.468;2022-09-01T13:00:17;28.80;99.90
11112;DHT22;5609;49.466;8.468;2022-09-01T13:02:47;28.60;99.90
11112;DHT22;5609;49.466;8.468;2022-09-01T13:05:22;28.30;99.90
11112;DHT22;5609;49.466;8.468;2022-09-01T13:07:53;28.10;99.90
11112;DHT22;5609;49.466;8.468;2022-09-01T13:10:21;27.80;99.90
11112;DHT22;5609;49.466;8.468;2022-09-01T13:12:50;27.60;99.90
11112;DHT22;5609;49.466;8.468;2022-09-01T13:15:17;27.40;99.90
11112;DHT22;5609;49.466;8.468;2022-09-01T13:17:44;27.20;99.90
11112;DHT22;5609;49.466;8.468;2022-09-01T13:20:11;27.20;99.90
11112;DHT22;5609;49.466;8.468;2022-09-01T13:22:39;27.90;99.90
11112;DHT22;5609;49.466;8.468;2022-09-01T13:25:09;28.90;99.90
11112;DHT22;5609;49.466;8.468;2022-09-01T13:27:36;29.90;99.90
11112;DHT22;5609;49.466;8.468;2022-09-01T13:30:03;30.40;99.90
11112;DHT22;5609;49.466;8.468;2022-09-01T13:32:31;31.10;99.90
11112;DHT22;5609;49.466;8.468;2022-09-01T13:34:58;32.10;99.90
11112;DHT22;5609;49.466;8.468;2022-09-01T13:37:25;32.50;99.90
11112;DHT22;5609;49.466;8.468;2022-09-01T13:39:52;33.20;99.90
11112;DHT22;5609;49.466;8.468;2022-09-01T13:42:20;33.50;99.90
11112;DHT22;5609;49.466;8.468;2022-09-01T13:44:47;33.30;99.90
11112;DHT22;5609;49.466;8.468;2022-09-01T13:47:14;33.70;99.90
11112;DHT22;5609;49.466;8.468;2022-09-01T13:49:40;34.00;99.90
11112;DHT22;5609;49.466;8.468;2022-09-01T13:52:07;34.20;99.90
11112;DHT22;5609;49.466;8.468;2022-09-01T13:54:34;34.50;99.90
11112;DHT22;5609;49.466;8.468;2022-09-01T13:57:01;34.70;95.90
11112;DHT22;5609;49.466;8.468;2022-09-01T13:59:29;33.60;92.20
11112;DHT22;5609;49.466;8.468;2022-09-01T14:01:57;33.10;94.10
11112;DHT22;5609;49.466;8.468;2022-09-01T14:04:24;33.80;98.30
11112;DHT22;5609;49.466;8.468;2022-09-01T14:06:50;34.70;95.00
11112;DHT22;5609;49.466;8.468;2022-09-01T14:09:18;35.00;85.10
11112;DHT22;5609;49.466;8.468;2022-09-01T14:11:45;34.60;75.30
11112;DHT22;5609;49.466;8.468;2022-09-01T14:14:12;33.50;69.00
11112;DHT22;5609;49.466;8.468;2022-09-01T14:16:40;32.80;76.30
11112;DHT22;5609;49.466;8.468;2022-09-01T14:19:07;32.20;80.60
11112;DHT22;5609;49.466;8.468;2022-09-01T14:21:34;31.40;85.20
11112;DHT22;5609;49.466;8.468;2022-09-01T14:24:02;30.90;91.70
11112;DHT22;5609;49.466;8.468;2022-09-01T14:26:29;30.70;97.70
11112;DHT22;5609;49.466;8.468;2022-09-01T14:28:56;31.10;99.90
11112;DHT22;5609;49.466;8.468;2022-09-01T14:31:27;31.80;99.90
11112;DHT22;5609;49.466;8.468;2022-09-01T14:33:56;32.30;98.20
11112;DHT22;5609;49.466;8.468;2022-09-01T14:36:24;32.50;94.00
11112;DHT22;5609;49.466;8.468;2022-09-01T14:38:52;33.20;92.00
11112;DHT22;5609;49.466;8.468;2022-09-01T14:41:21;32.30;99.90
11112;DHT22;5609;49.466;8.468;2022-09-01T14:43:49;31.20;92.80
11112;DHT22;5609;49.466;8.468;2022-09-01T14:46:16;30.40;93.70
11112;DHT22;5609;49.466;8.468;2022-09-01T14:48:45;29.90;99.90
11112;DHT22;5609;49.466;8.468;2022-09-01T14:51:21;29.50;99.90
11112;DHT22;5609;49.466;8.468;2022-09-01T14:53:49;28.90;99.90
11112;DHT22;5609;49.466;8.468;2022-09-01T14:56:16;28.60;99.90
11112;DHT22;5609;49.466;8.468;2022-09-01T14:58:44;28.30;99.90
11112;DHT22;5609;49.466;8.468;2022-09-01T15:01:11;28.30;99.90
11112;DHT22;5609;49.466;8.468;2022-09-01T15:03:39;28.20;99.90
11112;DHT22;5609;49.466;8.468;2022-09-01T15:06:07;28.00;99.90
11112;DHT22;5609;49.466;8.468;2022-09-01T15:08:35;28.00;99.90
11112;DHT22;5609;49.466;8.468;2022-09-01T15:11:02;28.10;99.90
11112;DHT22;5609;49.466;8.468;2022-09-01T15:13:33;28.10;99.90
11112;DHT22;5609;49.466;8.468;2022-09-01T15:15:59;28.70;99.90
11112;DHT22;5609;49.466;8.468;2022-09-01T15:18:26;29.50;99.90
11112;DHT22;5609;49.466;8.468;2022-09-01T15:20:53;29.60;99.90
11112;DHT22;5609;49.466;8.468;2022-09-01T15:23:22;29.80;99.90
11112;DHT22;5609;49.466;8.468;2022-09-01T15:25:52;30.60;99.90
11112;DHT22;5609;49.466;8.468;2022-09-01T15:28:20;31.20;99.90
11112;DHT22;5609;49.466;8.468;2022-09-01T15:30:47;32.20;99.90
11112;DHT22;5609;49.466;8.468;2022-09-01T15:33:14;33.50;99.90
11112;DHT22;5609;49.466;8.468;2022-09-01T15:50:30;34.50;90.00
11112;DHT22;5609;49.466;8.468;2022-09-01T15:52:59;33.70;27.80
11112;DHT22;5609;49.466;8.468;2022-09-01T15:55:28;32.10;32.60
11112;DHT22;5609;49.466;8.468;2022-09-01T16:00:27;30.20;50.10
11112;DHT22;5609;49.466;8.468;2022-09-01T16:02:55;29.40;71.50
11112;DHT22;5609;49.466;8.468;2022-09-01T16:05:26;28.80;90.40
11112;DHT22;5609;49.466;8.468;2022-09-01T16:07:53;28.40;99.90
11112;DHT22;5609;49.466;8.468;2022-09-01T16:10:21;27.90;99.90
11112;DHT22;5609;49.466;8.468;2022-09-01T16:12:48;27.60;99.90
11112;DHT22;5609;49.466;8.468;2022-09-01T16:15:18;27.30;99.90
11112;DHT22;5609;49.466;8.468;2022-09-01T16:17:59;27.30;99.90
11112;DHT22;5609;49.466;8.468;2022-09-01T16:20:34;27.00;99.90
11112;DHT22;5609;49.466;8.468;2022-09-01T16:23:09;26.90;99.90
11112;DHT22;5609;49.466;8.468;2022-09-01T16:25:37;26.70;99.90
11112;DHT22;5609;49.466;8.468;2022-09-01T16:28:11;26.50;99.90
11112;DHT22;5609;49.466;8.468;2022-09-01T16:30:44;26.60;99.90
11112;DHT22;5609;49.466;8.468;2022-09-01T16:33:13;26.40;99.90
11112;DHT22;5609;49.466;8.468;2022-09-01T16:35:51;26.40;99.90
11112;DHT22;5609;49.466;8.468;2022-09-01T16:38:29;26.40;99.90
11112;DHT22;5609;49.466;8.468;2022-09-01T16:41:04;26.20;99.90
11112;DHT22;5609;49.466;8.468;2022-09-01T16:43:38;26.20;99.90